Time;durP1;ratioP1;P1;durP2;ratioP2;P2;SDS_P1;SDS_P2;PMS_P1;PMS_P2;Temp;Humidity;BMP_temperature;BMP_pressure;BME280_temperature;BME280_humidity;BME280_pressure;Samples;Min_cycle;Max_cycle;Signal;HPM_P1;HPM_P2
2021/08/21 00:00:15;;;;;;;9.35;5.45;;;19.30;99.90;;;;;;5013998;28;20012;-72
2021/08/21 00:02:40;;;;;;;8.40;5.90;;;19.30;99.90;;;;;;5013412;28;20049;-72
2021/08/21 00:05:07;;;;;;;8.88;5.90;;;19.40;99.90;;;;;;5013230;28;20042;-72
2021/08/21 00:07:33;;;;;;;7.85;6.07;;;19.30;99.90;;;;;;5013365;28;20026;-72
2021/08/21 00:10:00;;;;;;;10.52;6.38;;;19.20;99.90;;;;;;5013170;28;20034;-72
2021/08/21 00:12:25;;;;;;;8.57;6.40;;;19.20;99.90;;;;;;5013905;28;20033;-71
2021/08/21 00:14:52;;;;;;;7.95;6.25;;;19.10;99.90;;;;;;5013190;28;20030;-72
2021/08/21 00:17:18;;;;;;;8.18;6.50;;;19.10;99.90;;;;;;5012902;28;20030;-72
2021/08/21 00:19:44;;;;;;;10.10;6.97;;;19.20;99.90;;;;;;5013167;28;20038;-72
2021/08/21 00:22:10;;;;;;;9.35;5.95;;;19.20;99.90;;;;;;5012914;28;20474;-72
2021/08/21 00:24:36;;;;;;;9.15;6.05;;;19.10;99.90;;;;;;5013076;28;20504;-72
2021/08/21 00:27:02;;;;;;;9.95;6.00;;;19.10;99.90;;;;;;5012196;28;20045;-73
2021/08/21 00:29:28;;;;;;;9.23;6.03;;;19.00;99.90;;;;;;5013065;28;20337;-72
2021/08/21 00:31:53;;;;;;;9.63;6.20;;;19.00;99.90;;;;;;5012754;28;20357;-71
2021/08/21 00:34:19;;;;;;;8.45;5.85;;;19.00;99.90;;;;;;5012647;28;20018;-72
2021/08/21 00:36:45;;;;;;;10.05;6.72;;;19.10;99.90;;;;;;5012757;28;20029;-72
2021/08/21 00:39:10;;;;;;;8.68;6.22;;;19.10;99.90;;;;;;5013208;28;20029;-72
2021/08/21 00:41:37;;;;;;;11.00;6.30;;;19.10;99.90;;;;;;5012916;28;20375;-73
2021/08/21 00:44:06;;;;;;;10.18;5.60;;;18.90;99.90;;;;;;5012551;28;20050;-72
2021/08/21 00:46:31;;;;;;;10.77;6.32;;;18.90;99.90;;;;;;5012509;28;20065;-74
2021/08/21 00:48:57;;;;;;;8.82;6.53;;;18.80;99.90;;;;;;5012352;28;20084;-72
2021/08/21 00:51:22;;;;;;;9.63;6.25;;;18.90;99.90;;;;;;5012825;28;20501;-72
2021/08/21 00:53:48;;;;;;;12.93;6.00;;;18.90;99.90;;;;;;5012273;28;20034;-72
2021/08/21 00:56:14;;;;;;;9.50;6.43;;;18.80;99.90;;;;;;5012197;28;20065;-72
2021/08/21 00:58:40;;;;;;;8.85;6.20;;;18.70;99.90;;;;;;5010958;28;20041;-72
2021/08/21 01:01:07;;;;;;;8.30;6.35;;;18.70;99.90;;;;;;5012168;28;20558;-72
2021/08/21 01:03:32;;;;;;;10.43;7.10;;;18.60;99.90;;;;;;5012699;28;20034;-72
2021/08/21 01:05:58;;;;;;;9.10;6.57;;;18.60;99.90;;;;;;5012065;28;20092;-72
2021/08/21 01:08:24;;;;;;;10.07;6.47;;;18.60;99.90;;;;;;5012083;28;20034;-72
2021/08/21 01:10:51;;;;;;;10.80;6.68;;;18.60;99.90;;;;;;5012416;28;20093;-72
2021/08/21 01:13:17;;;;;;;10.57;6.70;;;18.50;99.90;;;;;;5011764;28;20044;-72
2021/08/21 01:15:42;;;;;;;9.55;6.97;;;18.50;99.90;;;;;;5012181;28;20334;-73
2021/08/21 01:18:08;;;;;;;9.38;6.80;;;18.50;99.90;;;;;;5012330;28;20571;-73
2021/08/21 01:20:34;;;;;;;8.63;6.50;;;18.40;99.90;;;;;;5011873;28;20125;-72
2021/08/21 01:23:04;;;;;;;9.52;6.63;;;18.40;99.90;;;;;;5010310;28;20113;-72
2021/08/21 01:25:31;;;;;;;10.32;7.35;;;18.40;99.90;;;;;;5011811;28;20353;-72
2021/08/21 01:27:56;;;;;;;10.55;7.45;;;18.40;99.90;;;;;;5011333;28;20045;-72
2021/08/21 01:30:22;;;;;;;10.68;7.53;;;18.40;99.90;;;;;;5012032;28;20468;-72
2021/08/21 01:32:48;;;;;;;12.52;7.45;;;18.40;99.90;;;;;;5010753;28;20478;-72
2021/08/21 01:35:17;;;;;;;11.13;7.38;;;18.40;99.90;;;;;;5011386;28;20245;-72
2021/08/21 01:37:42;;;;;;;10.07;7.43;;;18.40;99.90;;;;;;5011725;28;20069;-72
2021/08/21 01:40:09;;;;;;;10.55;7.53;;;18.50;99.90;;;;;;5011743;28;20058;-71
2021/08/21 01:42:34;;;;;;;11.90;7.95;;;18.50;99.90;;;;;;5011916;28;20030;-72
2021/08/21 01:45:00;;;;;;;10.57;7.18;;;18.40;99.90;;;;;;5011526;28;20089;-72
2021/08/21 01:47:26;;;;;;;9.63;7.03;;;18.30;99.90;;;;;;5011436;28;20069;-72
2021/08/21 01:49:58;;;;;;;10.75;7.57;;;18.30;99.90;;;;;;5011687;28;20053;-71
2021/08/21 01:52:25;;;;;;;12.00;7.43;;;18.20;99.90;;;;;;5010440;28;20132;-72
2021/08/21 01:54:51;;;;;;;10.02;7.20;;;18.30;99.90;;;;;;5011704;28;20095;-72
2021/08/21 01:57:17;;;;;;;10.02;7.13;;;18.20;99.90;;;;;;5011480;28;20061;-70
2021/08/21 01:59:44;;;;;;;12.07;7.00;;;18.20;99.90;;;;;;5011501;28;20026;-72
2021/08/21 02:02:16;;;;;;;13.13;6.70;;;18.20;99.90;;;;;;5011389;28;20026;-72
2021/08/21 02:04:42;;;;;;;12.07;7.32;;;18.30;99.90;;;;;;5025257;28;20129;-74
2021/08/21 02:07:08;;;;;;;10.45;6.72;;;18.30;99.90;;;;;;5030907;28;20068;-72
2021/08/21 02:09:34;;;;;;;9.43;6.82;;;18.30;99.90;;;;;;5031516;28;20101;-74
2021/08/21 02:12:02;;;;;;;12.57;8.02;;;18.20;99.90;;;;;;5029980;28;20139;-73
2021/08/21 02:14:28;;;;;;;10.52;6.82;;;18.20;99.90;;;;;;5029932;28;20026;-72
2021/08/21 02:16:59;;;;;;;10.35;6.78;;;18.30;99.90;;;;;;5031009;28;20183;-71
2021/08/21 02:19:25;;;;;;;14.73;7.68;;;18.30;99.90;;;;;;5030798;28;20049;-73
2021/08/21 02:21:52;;;;;;;11.93;7.60;;;18.30;99.90;;;;;;5030930;28;20017;-71
2021/08/21 02:24:24;;;;;;;9.10;6.82;;;18.30;99.90;;;;;;5031380;28;20427;-74
2021/08/21 02:26:50;;;;;;;8.45;6.60;;;18.30;99.90;;;;;;5031019;28;20044;-71
2021/08/21 02:29:16;;;;;;;9.25;6.20;;;18.30;99.90;;;;;;5030717;28;20037;-71
2021/08/21 02:31:41;;;;;;;11.93;7.35;;;18.30;99.90;;;;;;5030793;28;20463;-71
2021/08/21 02:34:07;;;;;;;8.93;6.50;;;18.20;99.90;;;;;;5030551;28;20533;-71
2021/08/21 02:36:33;;;;;;;11.52;7.63;;;18.20;99.90;;;;;;5030978;28;20426;-71
2021/08/21 02:38:59;;;;;;;10.90;7.70;;;18.30;99.90;;;;;;5030953;28;20072;-72
2021/08/21 02:41:25;;;;;;;13.45;7.25;;;18.30;99.90;;;;;;5033876;28;20432;-72
2021/08/21 02:43:51;;;;;;;12.82;7.47;;;18.30;99.90;;;;;;5034518;28;20026;-71
2021/08/21 02:46:16;;;;;;;11.90;7.85;;;18.30;99.90;;;;;;5034520;28;20033;-72
2021/08/21 02:48:42;;;;;;;9.70;6.90;;;18.40;99.90;;;;;;5034392;28;20033;-71
2021/08/21 02:51:07;;;;;;;10.77;6.72;;;18.40;99.90;;;;;;5034940;28;20025;-72
2021/08/21 02:53:33;;;;;;;11.25;6.95;;;18.40;99.90;;;;;;5034442;28;20362;-72
2021/08/21 02:56:00;;;;;;;13.40;7.20;;;18.40;99.90;;;;;;5034548;28;20048;-72
2021/08/21 02:58:26;;;;;;;11.25;7.25;;;18.40;99.90;;;;;;5033948;28;20224;-72
2021/08/21 03:00:52;;;;;;;11.15;7.47;;;18.40;99.90;;;;;;5034326;28;20032;-72
2021/08/21 03:03:18;;;;;;;10.38;6.93;;;18.40;99.90;;;;;;5034827;28;20026;-72
2021/08/21 03:05:44;;;;;;;9.55;6.72;;;18.40;99.90;;;;;;5034008;28;20060;-72
2021/08/21 03:08:10;;;;;;;10.65;7.00;;;18.40;99.90;;;;;;5034169;28;20033;-72
2021/08/21 03:10:35;;;;;;;10.07;7.03;;;18.40;99.90;;;;;;5034215;28;20034;-71
2021/08/21 03:13:02;;;;;;;12.75;7.53;;;18.40;99.90;;;;;;5034159;28;20443;-72
2021/08/21 03:15:28;;;;;;;11.73;7.63;;;18.50;99.90;;;;;;5034297;28;20047;-72
2021/08/21 03:17:56;;;;;;;13.77;8.40;;;18.50;99.90;;;;;;5033978;28;20039;-72
2021/08/21 03:20:23;;;;;;;11.88;7.05;;;18.40;99.90;;;;;;5034001;28;20040;-72
2021/08/21 03:22:48;;;;;;;13.43;8.38;;;18.50;99.90;;;;;;5033656;28;20353;-72
2021/08/21 03:25:14;;;;;;;13.75;6.95;;;18.50;99.90;;;;;;5033969;28;20033;-72
2021/08/21 03:27:40;;;;;;;13.05;8.10;;;18.50;99.90;;;;;;5033625;28;20025;-72
2021/08/21 03:30:06;;;;;;;12.02;7.50;;;18.40;99.90;;;;;;5034198;28;20037;-72
2021/08/21 03:32:33;;;;;;;11.00;7.28;;;18.40;99.90;;;;;;5033396;28;20124;-72
2021/08/21 03:34:59;;;;;;;13.63;8.75;;;18.40;99.90;;;;;;5033515;28;20458;-72
2021/08/21 03:37:24;;;;;;;13.02;8.27;;;18.30;99.90;;;;;;5033075;28;20041;-72
2021/08/21 03:39:50;;;;;;;11.63;7.82;;;18.30;99.90;;;;;;5033396;28;20025;-72
2021/08/21 03:42:16;;;;;;;10.23;7.15;;;18.30;99.90;;;;;;5032778;28;20024;-72
2021/08/21 03:44:41;;;;;;;13.18;7.60;;;18.30;99.90;;;;;;5033455;28;20025;-74
2021/08/21 03:47:07;;;;;;;10.25;6.70;;;18.30;99.90;;;;;;5033455;28;20029;-72
2021/08/21 03:49:33;;;;;;;9.80;7.15;;;18.30;99.90;;;;;;5032065;28;20036;-72
2021/08/21 03:51:59;;;;;;;9.80;6.40;;;18.20;99.90;;;;;;5033119;28;20025;-72
2021/08/21 03:54:24;;;;;;;9.55;6.72;;;18.10;99.90;;;;;;5032566;28;20030;-72
2021/08/21 03:56:52;;;;;;;11.02;6.90;;;18.10;99.90;;;;;;5032944;28;20111;-71
2021/08/21 03:59:18;;;;;;;10.25;6.97;;;18.10;99.90;;;;;;5033175;28;20098;-72
2021/08/21 04:01:44;;;;;;;9.23;6.85;;;18.10;99.90;;;;;;5032840;28;20045;-74
2021/08/21 04:04:09;;;;;;;9.77;6.82;;;18.10;99.90;;;;;;5033135;28;20029;-72
2021/08/21 04:06:37;;;;;;;8.63;6.28;;;18.00;99.90;;;;;;5033007;28;20741;-72
2021/08/21 04:09:03;;;;;;;;;;;18.00;99.90;;;;;;5034035;28;20021;-72
2021/08/21 04:11:28;;;;;;;11.98;6.97;;;18.10;99.90;;;;;;5033024;28;19909;-73
2021/08/21 04:13:54;;;;;;;11.57;7.63;;;18.10;99.90;;;;;;5032645;28;20041;-71
2021/08/21 04:16:20;;;;;;;10.18;6.93;;;18.10;99.90;;;;;;5032806;28;20033;-72
2021/08/21 04:18:45;;;;;;;10.32;6.90;;;18.10;99.90;;;;;;5032499;28;20017;-72
2021/08/21 04:21:11;;;;;;;13.65;7.78;;;18.10;99.90;;;;;;5033207;28;20049;-71
2021/08/21 04:23:36;;;;;;;14.60;8.55;;;18.10;99.90;;;;;;5032656;28;20061;-72
2021/08/21 04:26:02;;;;;;;17.20;8.98;;;18.20;99.90;;;;;;5032694;28;20041;-73
2021/08/21 04:28:29;;;;;;;14.10;8.60;;;18.20;99.90;;;;;;5035385;28;20029;-71
2021/08/21 04:30:55;;;;;;;11.70;8.63;;;18.20;99.90;;;;;;5032417;28;20036;-74
2021/08/21 04:33:21;;;;;;;14.25;8.18;;;18.10;99.90;;;;;;5033188;28;20111;-71
2021/08/21 04:35:47;;;;;;;10.50;8.07;;;18.00;99.90;;;;;;5032309;28;20423;-71
2021/08/21 04:38:13;;;;;;;13.82;8.15;;;18.00;99.90;;;;;;5032300;28;20034;-72
2021/08/21 04:40:38;;;;;;;13.02;8.32;;;18.00;99.90;;;;;;5032372;28;20087;-71
2021/08/21 04:43:04;;;;;;;12.38;8.23;;;18.00;99.90;;;;;;5032448;28;20053;-72
2021/08/21 04:45:30;;;;;;;13.25;9.63;;;17.90;99.90;;;;;;5032849;28;20048;-73
2021/08/21 04:47:55;;;;;;;14.05;9.00;;;17.90;99.90;;;;;;5032243;28;20673;-74
2021/08/21 04:50:21;;;;;;;13.98;9.48;;;17.90;99.90;;;;;;5031171;28;20063;-72
2021/08/21 04:52:47;;;;;;;14.52;9.13;;;17.90;99.90;;;;;;5032205;28;20030;-74
2021/08/21 04:55:12;;;;;;;13.98;9.68;;;17.90;99.90;;;;;;5032222;28;20108;-72
2021/08/21 04:57:38;;;;;;;14.23;9.23;;;17.90;99.90;;;;;;5031678;28;20041;-72
2021/08/21 05:00:05;;;;;;;15.35;9.60;;;17.90;99.90;;;;;;5032515;28;20032;-72
2021/08/21 05:02:30;;;;;;;13.73;8.65;;;17.90;99.90;;;;;;5031057;28;20033;-72
2021/08/21 05:04:56;;;;;;;12.30;8.95;;;17.90;99.90;;;;;;5031431;28;20030;-72
2021/08/21 05:07:22;;;;;;;11.80;8.23;;;17.90;99.90;;;;;;5031903;28;20033;-72
2021/08/21 05:09:47;;;;;;;13.82;8.75;;;17.90;99.90;;;;;;5030779;28;20028;-72
2021/08/21 05:12:13;;;;;;;15.18;8.35;;;17.90;99.90;;;;;;5032206;28;20329;-72
2021/08/21 05:14:38;;;;;;;14.80;9.27;;;17.90;99.90;;;;;;5031632;28;20463;-72
2021/08/21 05:17:05;;;;;;;12.77;8.43;;;17.90;99.90;;;;;;5031923;28;20108;-72
2021/08/21 05:19:38;;;;;;;12.55;9.50;;;17.90;99.90;;;;;;5031459;28;20467;-72
2021/08/21 05:22:23;;;;;;;13.05;8.82;;;17.90;99.90;;;;;;5031706;28;20095;-72
2021/08/21 05:24:52;;;;;;;15.00;9.13;;;18.00;99.90;;;;;;5031459;28;20091;-72
2021/08/21 05:27:20;;;;;;;15.18;10.60;;;18.10;99.90;;;;;;5031913;28;20021;-72
2021/08/21 05:29:46;;;;;;;14.23;9.50;;;18.10;99.90;;;;;;5031429;28;20025;-72
2021/08/21 05:32:12;;;;;;;16.00;10.00;;;18.10;99.90;;;;;;5031428;28;20103;-72
2021/08/21 05:34:37;;;;;;;15.77;10.18;;;18.10;99.90;;;;;;5031336;28;20129;-71
2021/08/21 05:37:03;;;;;;;16.33;10.30;;;18.20;99.90;;;;;;5031708;28;20108;-72
2021/08/21 05:39:31;;;;;;;12.95;9.93;;;18.20;99.90;;;;;;5031908;28;20121;-72
2021/08/21 05:41:58;;;;;;;15.60;10.35;;;18.30;99.90;;;;;;5031548;28;20109;-73
2021/08/21 05:44:23;;;;;;;18.75;10.40;;;18.20;99.90;;;;;;5031401;28;20143;-73
2021/08/21 05:46:49;;;;;;;18.67;11.55;;;18.20;99.90;;;;;;5031164;28;20479;-73
2021/08/21 05:49:14;;;;;;;18.77;11.45;;;18.30;99.90;;;;;;5031053;28;20034;-71
2021/08/21 05:51:40;;;;;;;16.23;11.10;;;18.30;99.90;;;;;;5030942;28;20099;-72
2021/08/21 05:54:06;;;;;;;17.90;11.52;;;18.30;99.90;;;;;;5031458;28;20040;-72
2021/08/21 05:56:31;;;;;;;15.25;10.40;;;18.30;99.90;;;;;;5030988;28;20030;-73
2021/08/21 05:58:57;;;;;;;19.00;11.13;;;18.30;99.90;;;;;;5030842;28;20095;-74
2021/08/21 06:01:22;;;;;;;17.40;11.65;;;18.30;99.90;;;;;;5031099;28;20099;-72
2021/08/21 06:03:48;;;;;;;19.90;11.95;;;18.40;99.90;;;;;;5031039;28;20084;-73
2021/08/21 06:06:14;;;;;;;17.38;11.70;;;18.50;99.90;;;;;;5031672;28;20017;-73
2021/08/21 06:08:41;;;;;;;20.08;11.55;;;18.40;99.90;;;;;;5031082;28;20064;-73
2021/08/21 06:11:06;;;;;;;19.10;11.93;;;18.50;99.90;;;;;;5031169;28;20040;-72
2021/08/21 06:13:32;;;;;;;27.42;15.80;;;18.50;99.90;;;;;;5031471;28;20030;-74
2021/08/21 06:15:58;;;;;;;27.65;15.27;;;18.60;99.90;;;;;;5033952;28;20048;-73
2021/08/21 06:18:23;;;;;;;25.95;14.57;;;18.60;99.90;;;;;;5035358;28;20056;-73
2021/08/21 06:20:49;;;;;;;25.85;14.40;;;18.70;99.90;;;;;;5034786;28;20056;-72
2021/08/21 06:23:15;;;;;;;23.75;14.30;;;18.70;99.90;;;;;;5034783;28;20041;-70
2021/08/21 06:25:40;;;;;;;25.17;15.05;;;18.80;99.90;;;;;;5034869;28;20030;-72
2021/08/21 06:28:06;;;;;;;24.95;15.60;;;18.80;99.90;;;;;;5034886;28;20120;-73
2021/08/21 06:30:32;;;;;;;22.00;15.10;;;18.90;99.90;;;;;;5035397;28;20041;-72
2021/08/21 06:32:57;;;;;;;25.48;14.65;;;18.90;99.90;;;;;;5033624;28;20367;-72
2021/08/21 06:35:23;;;;;;;23.02;15.77;;;18.90;99.90;;;;;;5024540;28;20507;-71
2021/08/21 06:37:49;;;;;;;27.05;15.57;;;19.00;99.90;;;;;;5034007;28;20025;-72
2021/08/21 06:40:14;;;;;;;25.80;16.80;;;19.10;99.90;;;;;;5026121;28;20033;-71
2021/08/21 06:42:40;;;;;;;27.38;16.92;;;19.10;99.90;;;;;;5034893;28;20029;-71
2021/08/21 06:45:06;;;;;;;27.73;17.58;;;19.10;99.90;;;;;;5035000;28;20041;-73
2021/08/21 06:47:33;;;;;;;29.33;17.52;;;19.10;99.90;;;;;;5035483;28;20465;-72
2021/08/21 06:49:58;;;;;;;36.08;20.02;;;19.10;99.90;;;;;;5034958;28;20030;-72
2021/08/21 06:52:24;;;;;;;35.63;21.73;;;19.20;99.90;;;;;;5026905;28;20034;-71
2021/08/21 06:54:50;;;;;;;30.92;20.17;;;19.30;99.90;;;;;;5034785;28;20468;-73
2021/08/21 06:57:15;;;;;;;28.85;18.58;;;19.30;99.90;;;;;;5025824;28;20049;-72
2021/08/21 06:59:41;;;;;;;31.45;19.70;;;19.30;99.90;;;;;;5034624;28;20211;-72
2021/08/21 07:02:06;;;;;;;30.25;18.85;;;19.20;99.90;;;;;;5035065;28;20097;-71
2021/08/21 07:04:32;;;;;;;33.15;19.55;;;19.20;99.90;;;;;;5034617;28;20387;-72
2021/08/21 07:06:58;;;;;;;29.13;18.15;;;19.40;99.90;;;;;;5034219;28;20045;-72
2021/08/21 07:09:23;;;;;;;29.33;19.63;;;19.40;99.90;;;;;;5034636;28;20026;-70
2021/08/21 07:11:49;;;;;;;34.10;19.20;;;19.50;99.90;;;;;;5034585;28;20112;-71
2021/08/21 07:14:15;;;;;;;32.45;18.95;;;19.50;99.90;;;;;;5034955;28;20367;-71
2021/08/21 07:16:40;;;;;;;28.63;19.10;;;19.60;99.90;;;;;;5015250;28;20069;-71
2021/08/21 07:19:06;;;;;;;29.95;19.30;;;19.70;99.90;;;;;;5014908;28;20121;-71
2021/08/21 07:21:32;;;;;;;32.90;19.35;;;19.70;99.90;;;;;;5014627;28;20030;-71
2021/08/21 07:23:58;;;;;;;28.70;18.25;;;19.80;99.90;;;;;;5014706;28;20103;-72
2021/08/21 07:26:23;;;;;;;31.42;18.48;;;19.90;99.90;;;;;;5013620;28;20033;-72
2021/08/21 07:28:49;;;;;;;28.42;18.80;;;20.00;99.90;;;;;;5014721;28;20033;-71
2021/08/21 07:31:15;;;;;;;30.50;19.63;;;20.10;99.90;;;;;;5014566;28;20041;-73
2021/08/21 07:33:40;;;;;;;27.48;17.55;;;20.10;99.90;;;;;;5014323;28;20064;-71
2021/08/21 07:36:06;;;;;;;28.90;18.08;;;20.20;99.90;;;;;;5014501;28;20204;-72
2021/08/21 07:38:32;;;;;;;29.27;18.23;;;20.30;99.90;;;;;;5014263;28;20061;-71
2021/08/21 07:40:57;;;;;;;29.75;17.80;;;20.30;99.90;;;;;;5014754;28;20490;-72
2021/08/21 07:43:23;;;;;;;34.78;18.80;;;20.40;99.90;;;;;;5014236;28;20173;-72
2021/08/21 07:45:49;;;;;;;24.63;16.08;;;20.40;99.90;;;;;;5013534;28;20464;-71
2021/08/21 07:48:15;;;;;;;27.38;17.70;;;20.60;99.90;;;;;;5013189;28;20111;-69
2021/08/21 07:50:41;;;;;;;25.92;17.88;;;20.70;99.90;;;;;;5012954;28;20045;-70
2021/08/21 07:53:07;;;;;;;29.27;19.38;;;20.80;99.90;;;;;;5013213;28;20022;-70
2021/08/21 07:55:33;;;;;;;35.38;18.65;;;20.90;99.90;;;;;;5014122;28;20129;-73
2021/08/21 07:57:58;;;;;;;35.03;20.48;;;20.80;99.90;;;;;;5013534;28;20342;-71
2021/08/21 08:00:24;;;;;;;26.08;17.95;;;20.90;99.90;;;;;;5013923;28;20148;-70
2021/08/21 08:02:50;;;;;;;31.20;19.60;;;20.90;99.80;;;;;;5013542;28;20065;-68
2021/08/21 08:05:15;;;;;;;31.17;19.80;;;21.00;99.90;;;;;;5013868;28;20037;-70
2021/08/21 08:07:41;;;;;;;34.25;20.85;;;21.00;99.80;;;;;;5014006;28;20038;-71
2021/08/21 08:10:08;;;;;;;31.80;21.10;;;21.00;99.50;;;;;;5014012;28;20026;-70
2021/08/21 08:12:34;;;;;;;35.10;20.73;;;21.00;99.50;;;;;;5013609;28;20034;-71
2021/08/21 08:15:00;;;;;;;32.40;21.40;;;21.00;99.50;;;;;;5013507;28;20096;-72
2021/08/21 08:17:25;;;;;;;32.85;22.23;;;21.10;99.40;;;;;;5013879;28;20030;-71
2021/08/21 08:19:51;;;;;;;38.13;24.05;;;21.10;99.40;;;;;;5013915;28;20464;-70
2021/08/21 08:22:19;;;;;;;36.83;24.05;;;21.10;99.30;;;;;;5013447;28;20066;-71
2021/08/21 08:24:46;;;;;;;35.10;25.42;;;21.10;99.30;;;;;;5013383;28;20041;-71
2021/08/21 08:27:15;;;;;;;36.25;24.80;;;21.00;99.50;;;;;;5013486;28;20038;-71
2021/08/21 08:29:40;;;;;;;33.65;24.65;;;21.00;99.30;;;;;;5013317;28;20044;-71
2021/08/21 08:32:06;;;;;;;36.58;25.63;;;21.10;99.30;;;;;;5013851;28;20104;-71
2021/08/21 08:34:32;;;;;;;37.88;25.88;;;21.40;99.50;;;;;;5013252;28;20033;-70
2021/08/21 08:36:57;;;;;;;39.42;26.33;;;21.70;99.10;;;;;;5012658;28;20054;-69
2021/08/21 08:39:23;;;;;;;36.95;25.33;;;22.20;98.70;;;;;;5012753;28;20473;-71
2021/08/21 08:41:50;;;;;;;30.15;23.73;;;23.00;98.40;;;;;;5013215;28;20040;-70
2021/08/21 08:44:18;;;;;;;36.85;23.40;;;23.90;98.60;;;;;;5013548;28;20030;-71
2021/08/21 08:46:44;;;;;;;35.90;23.73;;;24.70;95.80;;;;;;5013738;28;20452;-70
2021/08/21 08:49:10;;;;;;;32.13;22.00;;;25.10;94.70;;;;;;5012982;28;20457;-72
2021/08/21 08:51:36;;;;;;;32.83;22.02;;;25.10;94.50;;;;;;5013041;28;20033;-72
2021/08/21 08:54:02;;;;;;;31.70;21.77;;;25.10;94.10;;;;;;5012908;28;20042;-72
2021/08/21 08:56:28;;;;;;;27.52;19.33;;;24.90;93.80;;;;;;5012829;28;20044;-72
2021/08/21 08:58:53;;;;;;;23.08;17.48;;;25.10;94.30;;;;;;4993613;28;20069;-72
2021/08/21 09:01:20;;;;;;;23.58;17.38;;;25.70;93.30;;;;;;4993250;28;20061;-73
2021/08/21 09:03:46;;;;;;;24.67;16.90;;;26.10;93.20;;;;;;4993413;28;20507;-74
2021/08/21 09:06:13;;;;;;;22.25;15.68;;;26.80;91.10;;;;;;4993218;28;20046;-72
2021/08/21 09:08:40;;;;;;;23.50;16.63;;;27.40;91.60;;;;;;5008355;28;20037;-74
2021/08/21 09:11:22;;;;;;;24.38;15.60;;;27.40;90.30;;;;;;5008791;28;20030;-73
2021/08/21 09:13:49;;;;;;;25.35;16.02;;;27.80;89.90;;;;;;5012766;28;20510;-72
2021/08/21 09:16:35;;;;;;;24.67;15.60;;;28.10;87.70;;;;;;5013084;28;20523;-75
2021/08/21 09:19:05;;;;;;;20.30;14.07;;;27.80;86.50;;;;;;5012651;28;20038;-74
2021/08/21 09:21:31;;;;;;;18.55;13.43;;;27.90;86.00;;;;;;5012952;28;20080;-75
2021/08/21 09:23:57;;;;;;;21.42;15.80;;;28.10;86.90;;;;;;5013105;28;20042;-74
2021/08/21 09:26:30;;;;;;;20.77;14.60;;;27.80;85.30;;;;;;5011954;28;20092;-74
2021/08/21 09:28:58;;;;;;;23.83;15.52;;;27.70;86.50;;;;;;5013247;28;20044;-74
2021/08/21 09:31:28;;;;;;;20.63;14.85;;;27.00;87.20;;;;;;4994086;28;20030;-75
2021/08/21 09:34:00;;;;;;;22.27;14.07;;;26.70;88.70;;;;;;5005392;28;20065;-74
2021/08/21 09:36:33;;;;;;;20.63;14.82;;;26.70;88.50;;;;;;5011593;28;20042;-77
2021/08/21 09:39:00;;;;;;;19.63;15.52;;;26.50;87.70;;;;;;5011767;28;20037;-75
2021/08/21 09:41:26;;;;;;;23.05;15.27;;;26.50;89.00;;;;;;5011363;28;20026;-72
2021/08/21 09:44:06;;;;;;;21.42;16.05;;;26.70;89.00;;;;;;5011763;28;20483;-73
2021/08/21 09:46:32;;;;;;;20.67;14.98;;;27.40;87.40;;;;;;5011293;28;20045;-72
2021/08/21 09:48:59;;;;;;;21.80;14.52;;;28.10;88.00;;;;;;5011112;28;20025;-72
2021/08/21 09:51:38;;;;;;;21.35;15.07;;;28.60;85.70;;;;;;5011372;28;20036;-73
2021/08/21 09:54:06;;;;;;;21.42;14.15;;;28.80;83.00;;;;;;5011340;28;20424;-72
2021/08/21 09:56:40;;;;;;;27.00;18.30;;;28.80;82.80;;;;;;5011385;28;20044;-72
2021/08/21 09:59:08;;;;;;;20.48;15.50;;;28.50;81.40;;;;;;5031525;28;20063;-73
2021/08/21 10:01:35;;;;;;;18.30;13.02;;;27.90;83.00;;;;;;5012184;28;20117;-71
2021/08/21 10:04:02;;;;;;;16.40;12.77;;;28.10;82.90;;;;;;5011566;28;20030;-72
2021/08/21 10:06:28;;;;;;;15.50;12.07;;;28.30;81.00;;;;;;5011403;28;20022;-73
2021/08/21 10:09:00;;;;;;;16.35;12.95;;;27.90;81.20;;;;;;5010616;28;20092;-72
2021/08/21 10:11:27;;;;;;;17.85;12.45;;;27.40;81.50;;;;;;5011130;28;20065;-73
2021/08/21 10:13:53;;;;;;;13.70;11.35;;;27.00;83.20;;;;;;5011578;28;20098;-71
2021/08/21 10:16:19;;;;;;;14.57;11.27;;;27.20;84.00;;;;;;5010803;28;20113;-75
2021/08/21 10:18:47;;;;;;;18.85;12.57;;;27.50;83.10;;;;;;5009825;28;20033;-73
2021/08/21 10:21:14;;;;;;;16.08;11.20;;;27.70;81.50;;;;;;5011115;28;20040;-84
2021/08/21 10:23:44;;;;;;;15.25;11.73;;;27.90;81.90;;;;;;5011285;28;20336;-73
2021/08/21 10:26:34;;;;;;;18.10;11.55;;;28.40;80.60;;;;;;5011613;28;20030;-72
2021/08/21 10:29:00;;;;;;;14.27;10.93;;;28.80;79.70;;;;;;5011211;28;20088;-71
2021/08/21 10:31:53;;;;;;;14.73;10.85;;;29.40;79.60;;;;;;5010991;28;20535;-73
2021/08/21 10:34:18;;;;;;;17.52;10.85;;;29.60;77.80;;;;;;5011751;28;20121;-71
2021/08/21 10:36:50;;;;;;;16.10;10.60;;;29.10;77.20;;;;;;5010142;28;20336;-71
2021/08/21 10:39:31;;;;;;;19.17;11.13;;;29.20;77.10;;;;;;5010742;28;20070;-72
2021/08/21 10:41:57;;;;;;;14.35;9.93;;;29.50;77.00;;;;;;5011012;28;20062;-71
2021/08/21 10:44:43;;;;;;;15.45;10.88;;;29.50;76.10;;;;;;5010934;28;20108;-72
2021/08/21 10:47:33;;;;;;;15.23;11.07;;;29.20;75.90;;;;;;5011341;28;20026;-72
2021/08/21 10:50:29;;;;;;;16.55;12.73;;;29.10;76.20;;;;;;5010758;28;20064;-73
2021/08/21 10:52:57;;;;;;;12.68;8.60;;;28.80;76.60;;;;;;5009534;28;20387;-72
2021/08/21 10:55:24;;;;;;;;;;;28.60;76.10;;;;;;5011137;28;20396;-72
2021/08/21 10:58:05;;;;;;;10.52;7.65;;;28.40;75.10;;;;;;5010525;28;19921;-71
2021/08/21 11:00:44;;;;;;;14.18;9.80;;;28.00;75.40;;;;;;5011207;28;20137;-71
2021/08/21 11:03:14;;;;;;;10.80;7.40;;;27.70;75.80;;;;;;5014236;28;20034;-73
2021/08/21 11:06:01;;;;;;;12.55;8.15;;;27.40;75.70;;;;;;5014325;28;20049;-72
2021/08/21 11:08:31;;;;;;;11.65;8.60;;;26.90;76.50;;;;;;5029506;28;20038;-72
2021/08/21 11:11:16;;;;;;;11.45;8.32;;;26.70;77.70;;;;;;5014832;28;20052;-72
2021/08/21 11:14:01;;;;;;;14.38;9.52;;;26.70;78.40;;;;;;5030041;28;20038;-71
2021/08/21 11:16:54;;;;;;;12.18;8.38;;;26.30;78.40;;;;;;5013821;28;20112;-72
2021/08/21 11:19:28;;;;;;;12.15;8.85;;;26.30;79.50;;;;;;5013763;28;20077;-72
2021/08/21 11:22:12;;;;;;;11.27;8.18;;;26.30;79.90;;;;;;5013983;28;20049;-71
2021/08/21 11:25:00;;;;;;;13.23;8.77;;;26.00;81.20;;;;;;5014367;28;20034;-72
2021/08/21 11:27:26;;;;;;;11.13;8.63;;;25.90;81.30;;;;;;5014097;28;20046;-71
2021/08/21 11:30:10;;;;;;;14.52;7.85;;;25.80;82.10;;;;;;5014055;28;20068;-72
2021/08/21 11:32:42;;;;;;;10.90;8.43;;;25.60;83.30;;;;;;5014098;28;20072;-72
2021/08/21 11:35:15;;;;;;;12.30;9.35;;;25.50;83.30;;;;;;5014193;28;20033;-72
2021/08/21 11:37:48;;;;;;;14.07;9.57;;;25.50;83.00;;;;;;5013745;28;20333;-72
2021/08/21 11:40:16;;;;;;;14.73;10.00;;;25.50;83.50;;;;;;5013789;28;20030;-73
2021/08/21 11:42:55;;;;;;;16.00;10.57;;;25.30;84.50;;;;;;5013602;28;20034;-72
2021/08/21 11:45:22;;;;;;;15.50;9.13;;;25.10;85.10;;;;;;5013728;28;20030;-72
2021/08/21 11:47:58;;;;;;;17.67;9.75;;;25.10;85.40;;;;;;5013714;28;20227;-71
2021/08/21 11:50:31;;;;;;;13.18;9.40;;;25.00;85.30;;;;;;5013514;28;20463;-73
2021/08/21 11:53:00;;;;;;;14.88;10.50;;;25.10;85.90;;;;;;5012976;28;20029;-76
2021/08/21 11:55:27;;;;;;;15.18;9.00;;;25.10;85.90;;;;;;5012640;28;20072;-75
2021/08/21 11:57:53;;;;;;;14.60;10.52;;;25.20;88.60;;;;;;5013576;28;20050;-75
2021/08/21 12:00:31;;;;;;;14.52;10.85;;;25.10;86.80;;;;;;5013401;28;20056;-74
2021/08/21 12:03:01;;;;;;;12.52;9.05;;;25.00;85.80;;;;;;5013641;28;20022;-73
2021/08/21 12:05:44;;;;;;;13.85;9.90;;;25.00;85.80;;;;;;5013276;28;20025;-74
2021/08/21 12:08:24;;;;;;;11.95;9.68;;;24.90;86.20;;;;;;5013434;28;20026;-71
2021/08/21 12:10:53;;;;;;;12.52;9.30;;;24.90;85.90;;;;;;5032943;28;20041;-73
2021/08/21 12:13:26;;;;;;;12.18;9.98;;;25.00;85.80;;;;;;5032306;28;20111;-71
2021/08/21 12:15:53;;;;;;;17.17;10.75;;;24.90;86.30;;;;;;5032888;28;20536;-72
2021/08/21 12:18:21;;;;;;;16.30;11.60;;;24.90;86.80;;;;;;5032773;28;20048;-72
2021/08/21 12:20:48;;;;;;;22.73;14.18;;;25.00;87.10;;;;;;5032605;28;20039;-72
2021/08/21 12:23:14;;;;;;;18.90;12.50;;;25.00;87.00;;;;;;5032882;28;20053;-72
2021/08/21 12:25:59;;;;;;;17.67;13.32;;;25.00;87.10;;;;;;5032592;28;20040;-72
2021/08/21 12:28:37;;;;;;;16.10;11.73;;;25.00;86.70;;;;;;5032325;28;20490;-71
2021/08/21 12:31:08;;;;;;;16.67;11.77;;;25.10;87.00;;;;;;5032589;28;20033;-72
2021/08/21 12:33:37;;;;;;;19.98;12.57;;;25.10;86.80;;;;;;5032380;28;20037;-72
2021/08/21 12:36:15;;;;;;;15.68;11.57;;;25.20;86.70;;;;;;5032271;28;20057;-72